Terminal Aerodrome Forecast
Issued by NWS

Home | Current Version | Previous Version | Text Only | Print | Product List | Glossary On
Versions: 1 2 3 4 5 6 7 8 9 10 11 12 13 14 15 16 17 18 19 20 21 22 23 24 25 26 27
141
FTUS41 KOKX 190531
TAFSWF
TAF
KSWF 190531Z 1906/2012 00000KT 1SM BR OVC010
     FM191200 VRB03KT P6SM SCT010 BKN025
     FM191400 31007KT P6SM SCT020
     FM200200 VRB03KT P6SM SCT020
     FM200700 VRB03KT 2SM BR BKN008
      AMD NOT SKED=

USA.gov is the U.S. government's official web portal to all federal, state and local government web resources and services.